createdAt,value
2022-09-07T00:00:40.399Z,1.80
2022-09-07T00:02:42.245Z,1.90
2022-09-07T00:04:43.937Z,1.98
2022-09-07T00:06:45.679Z,1.48
2022-09-07T00:08:47.428Z,1.73
2022-09-07T00:10:57.751Z,1.75
2022-09-07T00:12:59.431Z,1.75
2022-09-07T00:15:02.423Z,1.80
2022-09-07T00:17:04.091Z,1.77
2022-09-07T00:19:05.801Z,1.67
2022-09-07T00:21:09.559Z,2.00
2022-09-07T00:23:11.849Z,1.65
2022-09-07T00:25:13.578Z,1.77
2022-09-07T00:27:15.229Z,2.17
2022-09-07T00:29:16.884Z,2.17
2022-09-07T00:31:21.125Z,1.77
2022-09-07T00:33:23.128Z,2.40
2022-09-07T00:35:24.891Z,2.20
2022-09-07T00:37:26.553Z,1.65
2022-09-07T00:39:28.442Z,2.03
2022-09-07T00:41:30.262Z,2.28
2022-09-07T00:43:39.284Z,2.00
2022-09-07T00:45:40.949Z,2.20
2022-09-07T00:48:08.831Z,1.65
2022-09-07T00:50:25.815Z,1.80
2022-09-07T00:52:29.272Z,1.80
2022-09-07T00:54:37.028Z,2.22
2022-09-07T00:56:41.828Z,2.17
2022-09-07T00:58:44.101Z,2.05
2022-09-07T01:00:48.087Z,2.00
2022-09-07T01:02:52.002Z,2.00
2022-09-07T01:05:01.351Z,1.92
2022-09-07T01:07:05.626Z,1.90
2022-09-07T01:09:11.391Z,1.98
2022-09-07T01:11:13.366Z,2.65
2022-09-07T01:13:15.332Z,2.10
2022-09-07T01:15:17.031Z,1.88
2022-09-07T01:17:39.914Z,2.17
2022-09-07T01:20:12.818Z,2.20
2022-09-07T01:22:45.495Z,2.20
2022-09-07T01:25:05.830Z,2.55
2022-09-07T01:27:22.431Z,2.33
2022-09-07T01:29:41.962Z,1.98
2022-09-07T01:32:16.789Z,2.15
2022-09-07T01:34:26.504Z,2.05
2022-09-07T01:36:52.627Z,2.08
2022-09-07T01:38:58.993Z,1.90
2022-09-07T01:41:09.326Z,2.30
2022-09-07T01:43:22.391Z,1.90
2022-09-07T01:45:28.996Z,2.00
2022-09-07T01:47:38.326Z,2.05
2022-09-07T01:49:55.086Z,1.98
2022-09-07T01:52:02.780Z,2.28
2022-09-07T01:54:15.123Z,2.20
2022-09-07T01:56:33.459Z,2.10
2022-09-07T01:58:41.123Z,2.40
2022-09-07T02:00:53.551Z,2.30
2022-09-07T02:03:18.623Z,1.95
2022-09-07T02:05:25.478Z,2.33
2022-09-07T02:07:29.947Z,2.05
2022-09-07T02:09:42.283Z,1.80
2022-09-07T02:11:47.374Z,1.95
2022-09-07T02:13:58.677Z,2.00
2022-09-07T02:16:07.987Z,2.00
2022-09-07T02:18:12.874Z,2.15
2022-09-07T02:20:27.042Z,2.20
2022-09-07T02:22:34.138Z,2.00
2022-09-07T02:24:42.486Z,2.10
2022-09-07T02:26:48.237Z,2.00
2022-09-07T02:28:50.493Z,2.58
2022-09-07T02:30:52.228Z,2.33
2022-09-07T02:32:56.257Z,2.50
2022-09-07T02:34:57.992Z,2.00
2022-09-07T02:37:02.189Z,2.42
2022-09-07T02:39:04.098Z,2.10
2022-09-07T02:41:06.650Z,2.00
2022-09-07T02:43:10.182Z,2.30
2022-09-07T02:45:13.821Z,2.25
2022-09-07T02:47:27.407Z,2.22
2022-09-07T02:50:10.029Z,2.13
2022-09-07T02:52:26.908Z,2.60
2022-09-07T02:54:53.219Z,2.60
2022-09-07T02:56:57.444Z,1.98
2022-09-07T02:59:40.042Z,1.95
2022-09-07T03:02:00.755Z,2.20
2022-09-07T03:04:05.363Z,2.58
2022-09-07T03:06:19.305Z,2.40
2022-09-07T03:08:26.693Z,2.10
2022-09-07T03:10:29.107Z,2.25
2022-09-07T03:12:48.386Z,2.10
2022-09-07T03:14:50.032Z,2.05
2022-09-07T03:16:55.019Z,2.20
2022-09-07T03:18:56.691Z,2.17
2022-09-07T03:20:58.320Z,2.05
2022-09-07T03:22:59.932Z,1.80
2022-09-07T03:25:04.393Z,2.63
2022-09-07T03:27:06.239Z,2.13
2022-09-07T03:29:07.864Z,2.30
2022-09-07T03:31:09.644Z,2.20
2022-09-07T03:33:11.827Z,2.20
2022-09-07T03:35:15.536Z,2.15
2022-09-07T03:37:17.214Z,2.33
2022-09-07T03:39:21.037Z,2.25
2022-09-07T03:41:22.665Z,2.15
2022-09-07T03:43:25.303Z,2.45
2022-09-07T03:45:27.269Z,2.00
2022-09-07T03:47:29.274Z,2.05
2022-09-07T03:49:31.039Z,2.30
2022-09-07T03:51:32.667Z,2.00
2022-09-07T03:53:36.449Z,2.40
2022-09-07T03:55:38.103Z,2.05
2022-09-07T03:57:40.501Z,2.40
2022-09-07T03:59:42.115Z,2.40
2022-09-07T04:01:43.849Z,2.42
2022-09-07T04:03:46.517Z,2.60
2022-09-07T04:05:48.144Z,2.53
2022-09-07T04:07:49.962Z,2.30
2022-09-07T04:09:51.571Z,2.45
2022-09-07T04:11:53.198Z,2.42
2022-09-07T04:13:54.846Z,2.70
2022-09-07T04:15:57.367Z,2.75
2022-09-07T04:17:59.134Z,3.00
2022-09-07T04:20:00.767Z,2.80
2022-09-07T04:22:02.439Z,2.97
2022-09-07T04:24:04.090Z,2.92
2022-09-07T04:26:06.190Z,2.42
2022-09-07T04:28:07.792Z,3.05
2022-09-07T04:30:10.752Z,2.58
2022-09-07T04:32:15.637Z,2.80
2022-09-07T04:34:17.643Z,2.72
2022-09-07T04:36:20.362Z,2.95
2022-09-07T04:38:22.015Z,2.67
2022-09-07T04:40:23.619Z,2.30
2022-09-07T04:42:25.244Z,2.70
2022-09-07T04:44:27.044Z,2.97
2022-09-07T04:46:36.679Z,2.50
2022-09-07T04:48:38.289Z,2.97
2022-09-07T04:50:39.955Z,3.08
2022-09-07T04:52:41.660Z,2.45
2022-09-07T04:54:43.990Z,2.92
2022-09-07T04:56:45.691Z,2.92
2022-09-07T04:58:47.927Z,2.85
2022-09-07T05:00:49.619Z,2.95
2022-09-07T05:02:51.398Z,2.45
2022-09-07T05:04:53.038Z,2.85
2022-09-07T05:06:55.015Z,2.72
2022-09-07T05:08:58.495Z,2.63
2022-09-07T05:11:00.098Z,2.75
2022-09-07T05:13:02.776Z,2.40
2022-09-07T05:15:05.081Z,2.72
2022-09-07T05:17:07.791Z,2.70
2022-09-07T05:19:12.549Z,2.58
2022-09-07T05:21:17.260Z,3.25
2022-09-07T05:23:19.011Z,2.70
2022-09-07T05:25:20.730Z,2.88
2022-09-07T05:27:22.497Z,2.45
2022-09-07T05:31:46.749Z,2.75
2022-09-07T05:36:15.305Z,2.50
2022-09-07T05:38:16.930Z,2.67
2022-09-07T05:40:18.697Z,2.63
2022-09-07T05:42:20.302Z,2.60
2022-09-07T05:46:44.435Z,2.50
2022-09-07T05:48:46.054Z,2.53
2022-09-07T05:50:52.414Z,2.90
2022-09-07T05:52:54.060Z,2.95
2022-09-07T05:55:07.442Z,2.60
2022-09-07T05:57:17.520Z,2.90
2022-09-07T05:59:19.189Z,2.90
2022-09-07T06:01:20.972Z,2.67
2022-09-07T06:03:22.734Z,2.90
2022-09-07T06:05:24.485Z,2.70
2022-09-07T06:07:26.149Z,2.65
2022-09-07T06:09:30.491Z,2.50
2022-09-07T06:11:32.506Z,2.22
2022-09-07T06:13:35.254Z,2.40
2022-09-07T06:15:36.946Z,2.42
2022-09-07T06:17:38.809Z,2.42
2022-09-07T06:19:40.494Z,2.88
2022-09-07T06:21:42.171Z,2.88
2022-09-07T06:23:45.344Z,2.47
2022-09-07T06:25:50.259Z,2.70
2022-09-07T06:27:52.446Z,2.60
2022-09-07T06:29:54.507Z,2.45
2022-09-07T06:34:17.834Z,2.70
2022-09-07T06:36:24.551Z,2.50
2022-09-07T06:38:31.849Z,2.65
2022-09-07T06:40:34.645Z,3.38
2022-09-07T06:42:36.531Z,2.75
2022-09-07T06:44:38.384Z,2.40
2022-09-07T06:49:01.644Z,2.88
2022-09-07T06:51:11.533Z,2.83
2022-09-07T06:55:42.468Z,2.83
2022-09-07T06:57:44.136Z,2.58
2022-09-07T06:59:45.752Z,3.00
2022-09-07T07:01:47.379Z,2.83
2022-09-07T07:03:49.050Z,2.78
2022-09-07T07:05:52.720Z,2.65
2022-09-07T07:07:54.354Z,2.53
2022-09-07T07:09:56.027Z,2.33
2022-09-07T07:11:57.634Z,2.67
2022-09-07T07:14:00.040Z,2.55
2022-09-07T07:16:07.544Z,2.85
2022-09-07T07:18:20.821Z,2.47
2022-09-07T07:20:22.994Z,2.60
2022-09-07T07:22:45.687Z,2.70
2022-09-07T07:24:46.627Z,2.88
2022-09-07T07:26:48.791Z,2.63
2022-09-07T07:29:07.061Z,2.72
2022-09-07T07:31:13.017Z,2.58
2022-09-07T07:33:15.007Z,3.10
2022-09-07T07:35:16.773Z,2.75
2022-09-07T07:37:18.455Z,3.05
2022-09-07T07:42:00.144Z,2.42
2022-09-07T07:44:03.608Z,2.88
2022-09-07T07:46:06.329Z,2.60
2022-09-07T07:48:08.078Z,2.60
2022-09-07T07:53:41.027Z,3.13
2022-09-07T07:54:58.120Z,2.63
2022-09-07T07:56:59.696Z,2.60
2022-09-07T07:59:01.692Z,2.10
2022-09-07T08:01:06.748Z,2.80
2022-09-07T08:03:08.394Z,2.83
2022-09-07T08:05:09.991Z,2.60
2022-09-07T08:07:12.362Z,2.92
2022-09-07T08:09:14.165Z,2.58
2022-09-07T08:11:18.623Z,2.50
2022-09-07T08:13:21.640Z,2.83
2022-09-07T08:15:23.380Z,3.20
2022-09-07T08:17:24.963Z,2.55
2022-09-07T08:19:26.640Z,2.60
2022-09-07T08:21:28.325Z,2.15
2022-09-07T08:23:32.127Z,2.85
2022-09-07T08:25:37.550Z,2.83
2022-09-07T08:27:39.134Z,3.30
2022-09-07T08:29:40.713Z,2.65
2022-09-07T08:31:42.493Z,3.08
2022-09-07T08:33:44.872Z,2.60
2022-09-07T08:36:00.639Z,2.60
2022-09-07T08:38:02.457Z,3.13
2022-09-07T08:40:04.384Z,2.92
2022-09-07T08:42:38.332Z,2.88
2022-09-07T08:44:51.168Z,2.60
2022-09-07T08:46:58.268Z,2.80
2022-09-07T08:49:01.316Z,2.50
2022-09-07T08:51:15.782Z,2.58
2022-09-07T08:53:19.639Z,2.40
2022-09-07T08:55:26.911Z,2.92
2022-09-07T08:57:31.528Z,2.70
2022-09-07T08:59:39.595Z,2.90
2022-09-07T09:01:44.115Z,3.00
2022-09-07T09:04:24.225Z,2.53
2022-09-07T09:06:45.406Z,2.42
2022-09-07T09:08:49.895Z,2.42
2022-09-07T09:11:09.636Z,2.17
2022-09-07T09:13:22.413Z,2.25
2022-09-07T09:15:36.036Z,2.47
2022-09-07T09:17:43.678Z,2.67
2022-09-07T09:19:58.451Z,2.67
2022-09-07T09:22:13.760Z,2.55
2022-09-07T09:24:20.186Z,2.75
2022-09-07T09:26:25.156Z,3.08
2022-09-07T09:28:28.958Z,2.42
2022-09-07T09:30:33.981Z,2.30
2022-09-07T09:32:41.696Z,2.85
2022-09-07T09:35:32.702Z,2.88
2022-09-07T09:37:36.840Z,2.35
2022-09-07T09:39:39.989Z,2.70
2022-09-07T09:41:42.416Z,2.80
2022-09-07T09:43:51.699Z,2.50
2022-09-07T09:46:12.429Z,2.13
2022-09-07T09:48:37.458Z,2.30
2022-09-07T09:53:03.007Z,2.78
2022-09-07T09:55:30.654Z,2.33
2022-09-07T10:00:27.870Z,2.28
2022-09-07T10:04:55.004Z,2.25
2022-09-07T10:07:05.399Z,2.47
2022-09-07T10:09:17.921Z,2.78
2022-09-07T10:11:22.502Z,2.40
2022-09-07T10:13:35.331Z,2.30
2022-09-07T10:15:40.649Z,2.35
2022-09-07T10:17:43.904Z,2.65
2022-09-07T10:19:45.677Z,2.55
2022-09-07T10:21:56.302Z,2.80
2022-09-07T10:24:04.855Z,3.10
2022-09-07T10:26:36.637Z,2.70
2022-09-07T10:31:32.010Z,2.30
2022-09-07T10:36:34.676Z,2.40
2022-09-07T10:38:45.747Z,2.58
2022-09-07T10:40:56.232Z,2.70
2022-09-07T10:43:22.705Z,2.53
2022-09-07T10:45:38.254Z,2.47
2022-09-07T10:47:46.863Z,2.30
2022-09-07T10:50:24.258Z,2.35
2022-09-07T10:52:33.088Z,2.22
2022-09-07T10:54:53.138Z,2.38
2022-09-07T10:56:54.722Z,2.97
2022-09-07T10:59:08.296Z,2.30
2022-09-07T11:03:37.851Z,2.55
2022-09-07T11:05:57.587Z,2.20
2022-09-07T11:09:15.012Z,2.28
2022-09-07T11:11:04.629Z,2.53
2022-09-07T11:13:09.492Z,2.30
2022-09-07T11:15:14.099Z,2.35
2022-09-07T11:17:18.775Z,2.55
2022-09-07T11:19:35.284Z,2.38
2022-09-07T11:21:58.494Z,2.35
2022-09-07T11:24:33.627Z,1.83
2022-09-07T11:26:50.695Z,2.50
2022-09-07T11:29:29.667Z,2.13
2022-09-07T11:31:43.412Z,2.20
2022-09-07T11:34:28.302Z,2.10
2022-09-07T11:36:39.186Z,1.92
2022-09-07T11:38:57.418Z,2.13
2022-09-07T11:41:26.451Z,2.40
2022-09-07T11:43:55.719Z,2.40
2022-09-07T11:46:05.659Z,1.90
2022-09-07T11:48:31.036Z,1.80
2022-09-07T11:50:36.917Z,2.20
2022-09-07T11:52:41.757Z,1.88
2022-09-07T11:54:43.261Z,1.90
2022-09-07T11:56:51.039Z,1.92
2022-09-07T11:59:01.753Z,2.03
2022-09-07T12:01:36.737Z,1.90
2022-09-07T12:04:06.190Z,2.00
2022-09-07T12:06:26.300Z,1.80
2022-09-07T12:08:33.696Z,2.00
2022-09-07T12:10:53.539Z,1.80
2022-09-07T12:13:36.560Z,1.60
2022-09-07T12:15:47.143Z,1.48
2022-09-07T12:17:48.678Z,1.40
2022-09-07T12:20:17.926Z,1.42
2022-09-07T12:22:22.004Z,1.73
2022-09-07T12:24:39.467Z,1.67
2022-09-07T12:26:40.934Z,1.75
2022-09-07T12:28:45.544Z,2.00
2022-09-07T12:30:57.854Z,1.88
2022-09-07T12:33:04.478Z,1.67
2022-09-07T12:35:32.189Z,1.55
2022-09-07T12:37:38.141Z,1.70
2022-09-07T12:39:43.650Z,1.60
2022-09-07T12:41:48.755Z,1.77
2022-09-07T12:44:04.270Z,1.80
2022-09-07T12:46:19.412Z,1.60
2022-09-07T12:48:36.166Z,1.45
2022-09-07T12:50:55.658Z,1.83
2022-09-07T12:53:26.019Z,1.65
2022-09-07T12:56:15.701Z,1.80
2022-09-07T12:58:14.951Z,1.52
2022-09-07T13:00:23.287Z,1.77
2022-09-07T13:02:57.807Z,1.63
2022-09-07T13:05:30.635Z,1.52
2022-09-07T13:07:38.135Z,2.05
2022-09-07T13:09:41.239Z,1.50
2022-09-07T13:11:42.880Z,1.50
2022-09-07T13:14:04.839Z,1.35
2022-09-07T13:16:11.491Z,1.50
2022-09-07T13:18:28.572Z,1.40
2022-09-07T13:20:36.229Z,1.73
2022-09-07T13:22:40.712Z,1.50
2022-09-07T13:24:53.738Z,1.48
2022-09-07T13:27:10.442Z,1.70
2022-09-07T13:29:14.685Z,1.20
2022-09-07T13:31:19.381Z,1.70
2022-09-07T13:33:23.945Z,1.60
2022-09-07T13:35:27.345Z,1.42
2022-09-07T13:37:32.249Z,1.70
2022-09-07T13:39:49.218Z,1.80
2022-09-07T13:41:55.191Z,1.40
2022-09-07T13:44:02.390Z,1.50
2022-09-07T13:46:33.577Z,1.83
2022-09-07T13:48:51.958Z,1.58
2022-09-07T13:51:13.559Z,1.58
2022-09-07T13:53:20.547Z,1.50
2022-09-07T13:55:40.186Z,1.38
2022-09-07T13:57:47.852Z,1.52
2022-09-07T13:59:51.791Z,1.70
2022-09-07T14:01:54.842Z,1.15
2022-09-07T14:04:12.654Z,1.30
2022-09-07T14:06:20.275Z,1.63
2022-09-07T14:08:26.709Z,1.40
2022-09-07T14:10:29.223Z,1.40
2022-09-07T14:12:31.074Z,1.55
2022-09-07T14:14:33.349Z,1.60
2022-09-07T14:16:36.016Z,1.65
2022-09-07T14:18:40.014Z,1.65
2022-09-07T14:20:53.068Z,1.20
2022-09-07T14:22:54.619Z,1.75
2022-09-07T14:25:01.739Z,1.52
2022-09-07T14:27:05.073Z,1.45
2022-09-07T14:29:22.255Z,1.67
2022-09-07T14:31:25.280Z,1.42
2022-09-07T14:33:29.423Z,1.42
2022-09-07T14:35:38.296Z,1.65
2022-09-07T14:37:40.316Z,1.27
2022-09-07T14:39:44.961Z,1.50
2022-09-07T14:41:46.971Z,1.33
2022-09-07T14:43:54.229Z,1.30
2022-09-07T14:46:14.693Z,1.58
2022-09-07T14:48:29.218Z,1.13
2022-09-07T14:50:38.982Z,1.20
2022-09-07T14:53:33.340Z,1.20
2022-09-07T14:55:07.768Z,1.48
2022-09-07T14:57:12.165Z,1.60
2022-09-07T14:59:38.546Z,1.52
2022-09-07T15:01:40.173Z,1.48
2022-09-07T15:03:41.730Z,1.67
2022-09-07T15:05:48.240Z,1.60
2022-09-07T15:07:57.894Z,1.20
2022-09-07T15:10:21.357Z,1.50
2022-09-07T15:12:36.365Z,1.48
2022-09-07T15:14:39.995Z,1.17
2022-09-07T15:16:43.851Z,1.60
2022-09-07T15:18:51.772Z,1.35
2022-09-07T15:20:53.287Z,1.25
2022-09-07T15:22:55.665Z,2.35
2022-09-07T15:24:57.227Z,1.10
2022-09-07T15:27:02.335Z,1.23
2022-09-07T15:29:09.023Z,1.10
2022-09-07T15:33:34.917Z,1.40
2022-09-07T15:35:36.561Z,1.00
2022-09-07T15:39:59.770Z,1.15
2022-09-07T15:42:59.441Z,1.25
2022-09-07T15:44:27.907Z,1.35
2022-09-07T15:46:29.804Z,1.25
2022-09-07T15:48:31.759Z,1.58
2022-09-07T15:50:33.686Z,1.42
2022-09-07T15:52:35.258Z,1.42
2022-09-07T15:54:39.873Z,1.23
2022-09-07T15:56:44.385Z,1.33
2022-09-07T15:59:05.239Z,1.73
2022-09-07T16:03:28.812Z,1.45
2022-09-07T16:05:31.640Z,1.30
2022-09-07T16:09:55.252Z,1.42
2022-09-07T16:11:56.806Z,1.40
2022-09-07T16:14:02.181Z,1.70
2022-09-07T16:16:06.128Z,1.27
2022-09-07T16:18:07.738Z,1.23
2022-09-07T16:20:10.038Z,1.33
2022-09-07T16:23:13.157Z,1.15
2022-09-07T16:24:34.292Z,1.67
2022-09-07T16:26:36.111Z,1.83
2022-09-07T16:28:40.219Z,1.58
2022-09-07T16:30:41.751Z,1.88
2022-09-07T16:32:44.883Z,1.77
2022-09-07T16:34:46.718Z,2.05
2022-09-07T16:36:48.807Z,1.85
2022-09-07T16:39:00.550Z,2.42
2022-09-07T16:41:02.450Z,2.30
2022-09-07T16:43:03.976Z,1.90
2022-09-07T16:47:27.850Z,1.83
2022-09-07T16:49:29.493Z,1.63
2022-09-07T16:51:31.263Z,2.13
2022-09-07T16:53:35.479Z,2.05
2022-09-07T16:55:37.075Z,2.53
2022-09-07T17:00:00.209Z,1.90
2022-09-07T17:02:03.508Z,1.60
2022-09-07T17:04:10.421Z,1.70
2022-09-07T17:06:14.331Z,1.35
2022-09-07T17:08:15.834Z,1.70
2022-09-07T17:10:17.371Z,1.42
2022-09-07T17:12:18.988Z,1.63
2022-09-07T17:14:20.571Z,1.77
2022-09-07T17:16:27.056Z,1.80
2022-09-07T17:20:58.564Z,1.95
2022-09-07T17:23:01.572Z,1.48
2022-09-07T17:25:03.304Z,1.40
2022-09-07T17:27:05.224Z,1.60
2022-09-07T17:29:07.380Z,2.08
2022-09-07T17:31:10.553Z,2.13
2022-09-07T17:33:12.141Z,2.25
2022-09-07T17:35:13.863Z,2.42
2022-09-07T17:37:15.808Z,2.65
2022-09-07T17:39:18.835Z,2.38
2022-09-07T17:41:23.644Z,2.20
2022-09-07T17:43:45.290Z,2.72
2022-09-07T17:45:47.274Z,2.22
2022-09-07T17:47:50.364Z,2.30
2022-09-07T17:49:52.050Z,2.90
2022-09-07T17:51:53.596Z,2.50
2022-09-07T17:53:58.903Z,2.60
2022-09-07T17:56:00.539Z,2.38
2022-09-07T17:58:04.662Z,2.10
2022-09-07T18:00:11.314Z,2.17
2022-09-07T18:02:14.022Z,2.35
2022-09-07T18:04:15.652Z,2.50
2022-09-07T18:06:17.851Z,1.80
2022-09-07T18:08:19.735Z,1.63
2022-09-07T18:10:21.672Z,1.95
2022-09-07T18:12:23.793Z,1.77
2022-09-07T18:14:25.486Z,2.63
2022-09-07T18:16:30.654Z,2.10
2022-09-07T18:18:32.221Z,2.25
2022-09-07T18:20:34.421Z,2.20
2022-09-07T18:22:36.003Z,1.92
2022-09-07T18:24:37.542Z,1.80
2022-09-07T18:26:39.555Z,1.85
2022-09-07T18:31:12.417Z,2.40
2022-09-07T18:33:14.829Z,2.13
2022-09-07T18:35:16.728Z,2.30
2022-09-07T18:37:19.391Z,2.13
2022-09-07T18:39:21.216Z,2.10
2022-09-07T18:41:23.276Z,1.98
2022-09-07T18:43:27.963Z,2.35
2022-09-07T18:45:29.732Z,2.13
2022-09-07T18:47:31.711Z,2.25
2022-09-07T18:49:33.343Z,2.33
2022-09-07T18:52:51.550Z,2.10
2022-09-07T18:53:57.275Z,1.83
2022-09-07T18:56:24.848Z,2.05
2022-09-07T18:58:27.247Z,2.10
2022-09-07T19:00:29.442Z,2.03
2022-09-07T19:02:31.548Z,1.90
2022-09-07T19:06:55.764Z,2.08
2022-09-07T19:08:57.510Z,2.10
2022-09-07T19:11:12.446Z,2.55
2022-09-07T19:13:14.035Z,2.42
2022-09-07T19:15:15.721Z,2.13
2022-09-07T19:17:17.947Z,2.28
2022-09-07T19:19:19.590Z,2.10
2022-09-07T19:21:24.416Z,2.38
2022-09-07T19:23:25.988Z,2.35
2022-09-07T19:25:27.605Z,2.20
2022-09-07T19:27:29.314Z,2.10
2022-09-07T19:29:30.962Z,2.25
2022-09-07T19:31:32.560Z,3.38
2022-09-07T19:33:35.277Z,2.40
2022-09-07T19:35:36.982Z,2.20
2022-09-07T19:37:38.561Z,2.60
2022-09-07T19:39:40.229Z,2.50
2022-09-07T19:41:45.112Z,2.20
2022-09-07T19:43:47.432Z,2.17
2022-09-07T19:45:48.958Z,2.28
2022-09-07T19:47:50.730Z,2.35
2022-09-07T19:49:52.362Z,2.20
2022-09-07T19:51:55.025Z,2.38
2022-09-07T19:53:56.584Z,2.22
2022-09-07T19:56:16.074Z,1.98
2022-09-07T19:58:17.623Z,2.78
2022-09-07T20:00:19.323Z,2.40
2022-09-07T20:02:20.867Z,2.28
2022-09-07T20:04:23.584Z,2.00
2022-09-07T20:06:26.374Z,2.47
2022-09-07T20:08:29.543Z,2.38
2022-09-07T20:10:32.088Z,2.20
2022-09-07T20:12:33.691Z,2.30
2022-09-07T20:14:35.336Z,2.25
2022-09-07T20:16:38.572Z,2.33
2022-09-07T20:18:41.286Z,2.00
2022-09-07T20:20:42.924Z,2.40
2022-09-07T20:22:44.503Z,2.53
2022-09-07T20:24:46.124Z,2.10
2022-09-07T20:26:47.753Z,2.33
2022-09-07T20:29:16.402Z,2.13
2022-09-07T20:31:17.759Z,2.33
2022-09-07T20:33:19.748Z,2.30
2022-09-07T20:35:21.579Z,2.40
2022-09-07T20:37:27.763Z,1.92
2022-09-07T20:39:29.405Z,2.10
2022-09-07T20:41:33.812Z,2.58
2022-09-07T20:43:35.359Z,2.67
2022-09-07T20:45:36.901Z,2.60
2022-09-07T20:47:38.515Z,2.17
2022-09-07T20:49:40.006Z,2.83
2022-09-07T20:51:41.586Z,2.20
2022-09-07T20:53:43.096Z,2.60
2022-09-07T20:55:44.594Z,2.40
2022-09-07T20:57:46.447Z,2.20
2022-09-07T20:59:47.967Z,2.20
2022-09-07T21:01:49.547Z,2.42
2022-09-07T21:03:53.259Z,2.33
2022-09-07T21:05:54.982Z,2.42
2022-09-07T21:07:56.756Z,2.30
2022-09-07T21:09:58.336Z,2.70
2022-09-07T21:11:59.941Z,2.50
2022-09-07T21:14:06.910Z,2.50
2022-09-07T21:16:12.997Z,2.28
2022-09-07T21:18:18.716Z,2.50
2022-09-07T21:20:20.255Z,2.30
2022-09-07T21:22:21.808Z,2.30
2022-09-07T21:24:23.931Z,2.40
2022-09-07T21:26:26.121Z,2.50
2022-09-07T21:28:28.434Z,3.13
2022-09-07T21:30:30.233Z,2.65
2022-09-07T21:32:31.956Z,3.00
2022-09-07T21:34:33.499Z,2.75
2022-09-07T21:36:35.076Z,2.70
2022-09-07T21:38:38.455Z,3.20
2022-09-07T21:40:42.894Z,3.13
2022-09-07T21:42:44.569Z,3.45
2022-09-07T21:44:46.145Z,3.60
2022-09-07T21:46:47.733Z,3.60
2022-09-07T21:48:49.315Z,3.67
2022-09-07T21:50:56.952Z,3.83
2022-09-07T21:52:58.495Z,3.40
2022-09-07T21:55:00.092Z,3.30
2022-09-07T21:57:01.626Z,4.00
2022-09-07T21:59:04.146Z,3.60
2022-09-07T22:01:17.211Z,3.40
2022-09-07T22:03:18.944Z,3.63
2022-09-07T22:05:20.562Z,3.93
2022-09-07T22:07:22.148Z,3.83
2022-09-07T22:09:23.726Z,3.50
2022-09-07T22:11:27.243Z,3.08
2022-09-07T22:13:28.740Z,3.42
2022-09-07T22:15:33.634Z,3.90
2022-09-07T22:17:35.177Z,3.50
2022-09-07T22:19:37.495Z,3.30
2022-09-07T22:21:39.215Z,3.00
2022-09-07T22:23:43.591Z,3.00
2022-09-07T22:25:52.919Z,3.20
2022-09-07T22:27:54.460Z,3.20
2022-09-07T22:29:56.013Z,2.97
2022-09-07T22:31:57.611Z,2.95
2022-09-07T22:34:01.821Z,3.10
2022-09-07T22:36:15.569Z,2.90
2022-09-07T22:38:17.103Z,3.00
2022-09-07T22:40:18.621Z,3.53
2022-09-07T22:42:20.230Z,3.73
2022-09-07T22:44:21.771Z,3.73
2022-09-07T22:46:25.434Z,3.33
2022-09-07T22:48:27.507Z,3.43
2022-09-07T22:50:29.087Z,3.70
2022-09-07T22:52:30.707Z,3.33
2022-09-07T22:54:32.238Z,2.77
2022-09-07T22:56:33.967Z,3.17
2022-09-07T22:58:36.185Z,3.20
2022-09-07T23:00:38.259Z,3.30
2022-09-07T23:02:39.881Z,3.60
2022-09-07T23:04:41.616Z,3.07
2022-09-07T23:06:43.849Z,3.40
2022-09-07T23:08:45.404Z,3.40
2022-09-07T23:10:46.949Z,2.90
2022-09-07T23:12:48.479Z,2.90
2022-09-07T23:14:49.999Z,2.97
2022-09-07T23:16:51.672Z,3.20
2022-09-07T23:18:54.491Z,3.50
2022-09-07T23:21:00.724Z,2.60
2022-09-07T23:23:02.373Z,2.87
2022-09-07T23:25:04.455Z,3.27
2022-09-07T23:27:06.696Z,3.37
2022-09-07T23:29:11.611Z,3.27
2022-09-07T23:31:13.211Z,3.43
2022-09-07T23:33:15.815Z,3.37
2022-09-07T23:35:17.347Z,3.13
2022-09-07T23:37:19.163Z,2.97
2022-09-07T23:39:20.723Z,3.00
2022-09-07T23:41:22.895Z,2.70
2022-09-07T23:43:27.251Z,3.30
2022-09-07T23:45:28.904Z,3.00
2022-09-07T23:47:30.433Z,2.70
2022-09-07T23:49:31.992Z,2.50
2022-09-07T23:51:33.555Z,3.03
2022-09-07T23:53:35.131Z,3.00
2022-09-07T23:55:37.200Z,2.53
2022-09-07T23:57:38.992Z,2.80
2022-09-07T23:59:40.558Z,2.60
